createdAt,value
2022-11-22T00:01:06.144Z,6.12
2022-11-22T00:03:32.554Z,6.11
2022-11-22T00:05:58.921Z,6.19
2022-11-22T00:08:25.327Z,6.06
2022-11-22T00:10:51.838Z,6.16
2022-11-22T00:13:19.221Z,6.09
2022-11-22T00:15:45.749Z,6.15
2022-11-22T00:18:12.213Z,6.10
2022-11-22T00:20:38.573Z,6.03
2022-11-22T00:23:05.142Z,6.07
2022-11-22T00:25:31.507Z,5.98
2022-11-22T00:27:57.862Z,5.99
2022-11-22T00:30:24.263Z,6.08
2022-11-22T00:32:50.643Z,6.06
2022-11-22T00:35:17.010Z,6.16
2022-11-22T00:37:43.399Z,6.13
2022-11-22T00:40:10.080Z,6.18
2022-11-22T00:42:36.455Z,6.11
2022-11-22T00:45:02.878Z,6.15
2022-11-22T00:47:29.253Z,6.18
2022-11-22T00:49:55.616Z,5.88
2022-11-22T00:52:21.967Z,6.03
2022-11-22T00:54:53.203Z,6.10
2022-11-22T00:57:21.043Z,6.03
2022-11-22T00:59:47.424Z,6.03
2022-11-22T01:02:13.784Z,6.00
2022-11-22T01:04:40.270Z,6.14
2022-11-22T01:07:06.693Z,6.09
2022-11-22T01:09:33.105Z,6.02
2022-11-22T01:11:59.475Z,6.06
2022-11-22T01:14:25.854Z,6.12
2022-11-22T01:16:52.253Z,6.14
2022-11-22T01:19:18.707Z,6.16
2022-11-22T01:21:45.081Z,6.26
2022-11-22T01:24:11.464Z,6.16
2022-11-22T01:26:38.191Z,6.26
2022-11-22T01:29:04.844Z,6.23
2022-11-22T01:31:31.244Z,6.32
2022-11-22T01:33:58.938Z,6.38
2022-11-22T01:36:26.193Z,6.35
2022-11-22T01:38:52.574Z,6.29
2022-11-22T01:41:18.934Z,6.28
2022-11-22T01:43:45.298Z,6.32
2022-11-22T01:46:33.541Z,6.32
2022-11-22T01:49:03.309Z,6.22
2022-11-22T01:51:37.280Z,6.33
2022-11-22T01:54:08.124Z,6.21
2022-11-22T01:56:35.675Z,6.24
2022-11-22T01:59:06.447Z,6.24
2022-11-22T02:01:33.193Z,6.27
2022-11-22T02:38:04.868Z,6.15
2022-11-22T02:40:45.486Z,6.17
2022-11-22T02:43:16.017Z,6.23
2022-11-22T02:45:42.386Z,6.22
2022-11-22T02:48:13.573Z,6.23
2022-11-22T02:50:40.410Z,6.22
2022-11-22T02:53:07.907Z,6.35
2022-11-22T02:55:34.633Z,6.48
2022-11-22T02:58:01.096Z,6.42
2022-11-22T03:00:27.522Z,6.34
2022-11-22T03:02:53.879Z,6.53
2022-11-22T03:05:20.252Z,6.52
2022-11-22T03:07:46.767Z,6.44
2022-11-22T03:10:13.164Z,6.50
2022-11-22T03:12:39.528Z,6.55
2022-11-22T03:15:06.235Z,6.58
2022-11-22T03:17:32.615Z,6.59
2022-11-22T03:19:58.996Z,6.60
2022-11-22T03:22:25.810Z,6.55
2022-11-22T03:24:52.167Z,6.29
2022-11-22T03:27:18.549Z,6.20
2022-11-22T03:29:45.021Z,6.13
2022-11-22T03:32:11.546Z,6.17
2022-11-22T03:34:38.067Z,6.04
2022-11-22T03:37:04.435Z,6.09
2022-11-22T03:39:31.111Z,6.13
2022-11-22T03:41:57.758Z,6.25
2022-11-22T03:44:24.355Z,6.31
2022-11-22T03:46:50.735Z,6.24
2022-11-22T03:49:17.094Z,6.26
2022-11-22T03:51:43.540Z,6.36
2022-11-22T03:54:09.903Z,6.29
2022-11-22T03:56:36.270Z,6.22
2022-11-22T03:59:02.644Z,6.26
2022-11-22T04:01:29.086Z,6.24
2022-11-22T04:03:55.493Z,6.19
2022-11-22T04:06:21.904Z,6.10
2022-11-22T04:08:48.380Z,6.15
2022-11-22T04:11:14.795Z,6.21
2022-11-22T04:13:59.712Z,6.14
2022-11-22T04:16:26.074Z,6.00
2022-11-22T04:18:52.428Z,6.00
2022-11-22T04:21:33.796Z,5.91
2022-11-22T04:24:20.513Z,5.82
2022-11-22T04:26:47.235Z,5.85
2022-11-22T04:29:13.617Z,5.91
2022-11-22T04:31:58.568Z,5.82
2022-11-22T04:34:24.949Z,5.82
2022-11-22T04:36:51.770Z,5.84
2022-11-22T04:39:18.175Z,5.85
2022-11-22T04:41:44.631Z,5.97
2022-11-22T04:44:29.644Z,6.14
2022-11-22T04:46:56.124Z,6.10
2022-11-22T04:49:22.601Z,6.18
2022-11-22T04:52:07.675Z,6.15
2022-11-22T04:54:34.021Z,6.20
2022-11-22T04:57:00.395Z,6.20
2022-11-22T04:59:26.888Z,6.02
2022-11-22T05:01:53.302Z,6.01
2022-11-22T05:04:19.699Z,5.93
2022-11-22T05:06:46.058Z,5.99
2022-11-22T05:09:12.433Z,5.96
2022-11-22T05:11:38.805Z,5.87
2022-11-22T05:14:05.194Z,5.87
2022-11-22T05:16:31.563Z,5.89
2022-11-22T05:19:00.839Z,5.74
2022-11-22T05:21:28.718Z,5.50
2022-11-22T05:23:55.872Z,5.37
2022-11-22T05:26:26.231Z,5.36
2022-11-22T05:28:52.588Z,5.26
2022-11-22T05:31:23.139Z,5.29
2022-11-22T05:33:51.755Z,5.30
2022-11-22T05:36:18.469Z,5.32
2022-11-22T05:38:44.850Z,5.47
2022-11-22T05:41:12.798Z,5.41
2022-11-22T05:43:39.575Z,5.49
2022-11-22T05:46:16.202Z,5.52
2022-11-22T05:48:46.871Z,5.38
2022-11-22T05:51:19.251Z,5.37
2022-11-22T05:53:45.695Z,5.13
2022-11-22T05:56:17.181Z,5.18
2022-11-22T05:58:43.701Z,5.11
2022-11-22T06:01:18.606Z,5.16
2022-11-22T06:03:45.707Z,5.21
2022-11-22T06:06:12.451Z,5.33
2022-11-22T06:08:44.969Z,5.37
2022-11-22T06:11:17.407Z,5.47
2022-11-22T06:13:45.379Z,5.48
2022-11-22T06:16:12.250Z,5.46
2022-11-22T06:18:39.008Z,5.40
2022-11-22T06:21:07.740Z,5.32
2022-11-22T06:23:34.297Z,5.36
2022-11-22T06:26:02.745Z,5.44
2022-11-22T06:28:29.933Z,5.46
2022-11-22T06:31:04.104Z,5.58
2022-11-22T06:33:31.607Z,5.57
2022-11-22T06:36:05.654Z,5.53
2022-11-22T06:38:32.685Z,5.47
2022-11-22T06:41:04.014Z,5.39
2022-11-22T06:43:31.465Z,5.41
2022-11-22T06:45:58.511Z,5.39
2022-11-22T06:48:25.807Z,5.35
2022-11-22T06:50:52.240Z,5.42
2022-11-22T06:53:45.365Z,5.32
2022-11-22T06:56:12.382Z,5.34
2022-11-22T06:58:39.264Z,5.34
2022-11-22T07:01:14.178Z,5.32
2022-11-22T07:03:41.175Z,5.32
2022-11-22T07:06:09.050Z,5.31
2022-11-22T07:08:36.312Z,5.24
2022-11-22T07:11:08.294Z,5.30
2022-11-22T07:13:35.233Z,5.34
2022-11-22T07:16:04.630Z,5.31
2022-11-22T07:18:31.497Z,5.32
2022-11-22T07:21:12.227Z,5.37
2022-11-22T07:23:43.389Z,5.34
2022-11-22T07:26:10.772Z,5.38
2022-11-22T07:28:37.353Z,5.43
2022-11-22T07:31:06.177Z,5.42
2022-11-22T07:33:32.829Z,5.38
2022-11-22T07:36:07.413Z,5.43
2022-11-22T07:38:34.471Z,5.37
2022-11-22T07:41:01.463Z,5.26
2022-11-22T07:43:28.522Z,5.33
2022-11-22T07:46:01.580Z,5.33
2022-11-22T07:48:28.027Z,5.28
2022-11-22T07:50:54.431Z,5.31
2022-11-22T07:53:21.235Z,5.20
2022-11-22T07:55:47.672Z,5.13
2022-11-22T07:58:14.091Z,5.16
2022-11-22T08:00:40.494Z,5.21
2022-11-22T08:03:08.175Z,5.23
2022-11-22T08:05:34.605Z,5.30
2022-11-22T08:08:00.971Z,5.35
2022-11-22T08:10:27.384Z,5.52
2022-11-22T08:12:53.790Z,5.38
2022-11-22T08:15:20.339Z,5.41
2022-11-22T08:17:46.820Z,5.43
2022-11-22T08:20:13.406Z,5.45
2022-11-22T08:22:40.867Z,5.42
2022-11-22T08:25:12.357Z,5.33
2022-11-22T08:27:42.812Z,5.48
2022-11-22T08:30:12.395Z,5.48
2022-11-22T08:32:38.875Z,5.47
2022-11-22T08:35:05.713Z,5.50
2022-11-22T08:37:32.201Z,5.53
2022-11-22T08:39:58.572Z,5.61
2022-11-22T08:42:24.972Z,5.60
2022-11-22T08:44:51.417Z,5.61
2022-11-22T08:47:17.790Z,5.70
2022-11-22T08:49:44.275Z,5.76
2022-11-22T08:52:10.663Z,5.99
2022-11-22T08:54:38.187Z,5.92
2022-11-22T08:57:05.099Z,6.18
2022-11-22T08:59:31.752Z,6.35
2022-11-22T09:01:58.432Z,6.47
2022-11-22T09:04:24.807Z,6.73
2022-11-22T09:09:38.339Z,6.78
2022-11-22T09:12:05.262Z,6.92
2022-11-22T09:14:31.702Z,7.10
2022-11-22T09:16:58.247Z,7.10
2022-11-22T09:19:24.661Z,7.31
2022-11-22T09:21:51.183Z,7.34
2022-11-22T09:24:17.581Z,7.28
2022-11-22T09:26:44.077Z,7.40
2022-11-22T09:29:10.557Z,7.44
2022-11-22T09:31:36.947Z,7.40
2022-11-22T09:34:03.446Z,7.51
2022-11-22T09:36:30.778Z,7.56
2022-11-22T09:38:57.144Z,7.61
2022-11-22T09:41:36.235Z,7.59
2022-11-22T09:44:20.955Z,7.72
2022-11-22T09:46:58.437Z,7.92
2022-11-22T09:49:35.391Z,7.87
2022-11-22T09:52:09.357Z,7.94
2022-11-22T09:54:48.397Z,7.90
2022-11-22T09:57:34.686Z,7.92
2022-11-22T10:00:07.510Z,8.07
2022-11-22T10:02:59.265Z,8.13
2022-11-22T10:05:30.864Z,8.03
2022-11-22T10:08:02.527Z,7.88
2022-11-22T10:10:40.062Z,8.10
2022-11-22T10:13:15.548Z,8.40
2022-11-22T10:16:03.907Z,8.69
2022-11-22T10:19:13.156Z,8.62
2022-11-22T10:21:39.643Z,8.48
2022-11-22T10:24:06.402Z,8.64
2022-11-22T10:26:34.276Z,8.88
2022-11-22T10:29:27.071Z,9.32
2022-11-22T10:31:59.229Z,9.15
2022-11-22T10:34:44.408Z,8.78
2022-11-22T10:37:43.675Z,8.65
2022-11-22T10:40:18.505Z,8.44
2022-11-22T10:42:53.824Z,8.20
2022-11-22T10:45:43.740Z,8.19
2022-11-22T10:48:12.712Z,8.17
2022-11-22T10:50:54.217Z,8.02
2022-11-22T10:53:34.828Z,8.07
2022-11-22T10:56:29.129Z,7.93
2022-11-22T10:58:58.401Z,7.85
2022-11-22T11:01:36.788Z,7.72
2022-11-22T11:04:04.106Z,7.71
2022-11-22T11:06:56.953Z,7.61
2022-11-22T11:12:15.343Z,7.64
2022-11-22T11:14:58.058Z,7.70
2022-11-22T11:17:29.890Z,7.80
2022-11-22T11:19:58.910Z,7.83
2022-11-22T11:22:58.671Z,7.75
2022-11-22T11:25:32.202Z,7.86
2022-11-22T11:28:05.450Z,8.19
2022-11-22T11:30:55.422Z,8.34
2022-11-22T11:33:30.416Z,8.10
2022-11-22T11:36:03.327Z,8.13
2022-11-22T11:38:44.885Z,8.10
2022-11-22T11:41:18.688Z,8.07
2022-11-22T11:43:45.822Z,8.06
2022-11-22T11:46:22.105Z,8.13
2022-11-22T11:48:50.085Z,8.17
2022-11-22T11:51:20.705Z,8.22
2022-11-22T11:54:10.811Z,7.95
2022-11-22T11:56:47.658Z,8.11
2022-11-22T11:59:16.911Z,8.17
2022-11-22T12:01:49.277Z,8.34
2022-11-22T12:04:22.249Z,8.46
2022-11-22T12:07:02.828Z,8.51
2022-11-22T12:09:37.718Z,8.76
2022-11-22T12:12:13.482Z,9.01
2022-11-22T12:15:09.251Z,9.03
2022-11-22T12:17:30.579Z,8.74
2022-11-22T12:20:05.886Z,8.79
2022-11-22T12:23:00.268Z,8.63
2022-11-22T12:25:40.139Z,8.72
2022-11-22T12:28:16.777Z,8.90
2022-11-22T12:30:44.186Z,8.73
2022-11-22T12:33:18.250Z,8.53
2022-11-22T12:35:45.929Z,8.79
2022-11-22T12:38:19.859Z,8.72
2022-11-22T12:40:52.835Z,8.78
2022-11-22T12:43:44.220Z,8.74
2022-11-22T12:46:18.586Z,8.59
2022-11-22T12:49:23.706Z,8.62
2022-11-22T12:52:10.307Z,8.60
2022-11-22T12:54:49.242Z,8.60
2022-11-22T12:57:22.994Z,8.40
2022-11-22T13:00:04.942Z,8.62
2022-11-22T13:02:36.461Z,8.59
2022-11-22T13:05:13.804Z,8.66
2022-11-22T13:07:57.693Z,8.64
2022-11-22T13:10:43.601Z,8.61
2022-11-22T13:13:32.430Z,8.67
2022-11-22T13:16:01.009Z,8.64
2022-11-22T13:18:32.806Z,8.48
2022-11-22T13:21:18.856Z,8.59
2022-11-22T13:23:58.660Z,8.48
2022-11-22T13:26:42.549Z,8.69
2022-11-22T13:29:21.864Z,8.83
2022-11-22T13:32:07.035Z,9.20
2022-11-22T13:34:34.663Z,9.08
2022-11-22T13:37:17.211Z,9.12
2022-11-22T13:39:46.017Z,9.05
2022-11-22T13:42:16.861Z,9.01
2022-11-22T13:45:19.455Z,8.86
2022-11-22T13:47:46.063Z,8.80
2022-11-22T13:50:41.604Z,8.74
2022-11-22T13:53:20.175Z,8.72
2022-11-22T13:55:46.949Z,8.72
2022-11-22T13:58:39.340Z,8.72
2022-11-22T14:01:34.714Z,8.71
2022-11-22T14:04:16.458Z,8.58
2022-11-22T14:06:50.317Z,8.60
2022-11-22T14:09:44.786Z,8.53
2022-11-22T14:12:11.042Z,8.34
2022-11-22T14:15:05.247Z,8.42
2022-11-22T14:17:50.070Z,8.55
2022-11-22T14:20:19.610Z,8.59
2022-11-22T14:23:31.583Z,8.76
2022-11-22T14:26:20.846Z,8.64
2022-11-22T14:29:11.585Z,8.63
2022-11-22T14:31:38.731Z,8.53
2022-11-22T14:34:27.431Z,8.61
2022-11-22T14:37:12.684Z,8.52
2022-11-22T14:39:45.122Z,8.40
2022-11-22T14:42:47.142Z,8.27
2022-11-22T14:45:23.307Z,8.23
2022-11-22T14:47:58.248Z,8.49
2022-11-22T14:51:07.268Z,8.57
2022-11-22T14:53:34.460Z,8.43
2022-11-22T14:56:05.706Z,8.38
2022-11-22T14:58:37.083Z,8.37
2022-11-22T15:01:21.962Z,8.34
2022-11-22T15:03:53.004Z,8.36
2022-11-22T15:09:10.832Z,8.28
2022-11-22T15:09:57.248Z,8.23
2022-11-22T15:12:27.235Z,8.16
2022-11-22T15:58:10.457Z,7.63
2022-11-22T16:00:36.862Z,7.53
2022-11-22T16:03:04.215Z,7.54
2022-11-22T16:06:08.095Z,7.52
2022-11-22T16:08:20.923Z,7.44
2022-11-22T16:10:50.039Z,7.53
2022-11-22T16:13:19.727Z,7.49
2022-11-22T16:16:10.932Z,7.49
2022-11-22T16:18:37.966Z,7.41
2022-11-22T16:21:11.114Z,7.41
2022-11-22T16:23:38.811Z,7.31
2022-11-22T16:26:17.156Z,7.35
2022-11-22T16:28:43.801Z,7.36
2022-11-22T16:31:31.210Z,7.39
2022-11-22T16:33:58.213Z,7.31
2022-11-22T16:36:28.525Z,7.28
2022-11-22T16:38:54.902Z,7.30
2022-11-22T16:41:26.430Z,7.31
2022-11-22T16:43:59.560Z,7.35
2022-11-22T16:46:25.982Z,7.37
2022-11-22T16:48:55.131Z,7.27
2022-11-22T16:51:28.388Z,7.28
2022-11-22T16:53:57.921Z,7.37
2022-11-22T16:56:26.254Z,7.31
2022-11-22T16:58:54.485Z,7.32
2022-11-22T17:01:26.451Z,7.27
2022-11-22T17:03:53.613Z,7.27
2022-11-22T17:06:22.062Z,7.41
2022-11-22T17:08:49.828Z,7.40
2022-11-22T17:11:17.709Z,7.34
2022-11-22T17:13:44.221Z,7.41
2022-11-22T17:16:11.503Z,7.34
2022-11-22T17:18:38.576Z,7.26
2022-11-22T17:21:26.315Z,7.29
2022-11-22T17:23:58.082Z,7.35
2022-11-22T17:26:24.846Z,7.33
2022-11-22T17:28:51.290Z,7.36
2022-11-22T17:31:18.651Z,7.34
2022-11-22T17:33:49.247Z,7.34
2022-11-22T17:36:28.987Z,7.37
2022-11-22T17:38:56.206Z,7.35
2022-11-22T17:41:22.843Z,7.34
2022-11-22T17:43:49.525Z,7.50
2022-11-22T17:46:16.127Z,7.54
2022-11-22T17:48:42.520Z,7.51
2022-11-22T17:51:12.554Z,7.59
2022-11-22T17:53:39.347Z,7.55
2022-11-22T17:56:10.864Z,7.70
2022-11-22T17:58:38.390Z,7.71
2022-11-22T18:01:06.312Z,7.37
2022-11-22T18:03:33.474Z,7.59
2022-11-22T18:06:00.424Z,7.62
2022-11-22T18:08:27.393Z,7.50
2022-11-22T18:10:54.874Z,7.49
2022-11-22T18:13:22.245Z,7.36
2022-11-22T18:16:03.322Z,7.52
2022-11-22T18:18:58.326Z,7.57
2022-11-22T18:21:17.677Z,7.53
2022-11-22T18:23:45.048Z,7.37
2022-11-22T18:29:32.595Z,7.57
2022-11-22T18:31:54.007Z,7.54
2022-11-22T18:34:21.693Z,7.36
2022-11-22T18:37:00.418Z,7.53
2022-11-22T18:39:29.967Z,7.54
2022-11-22T18:41:56.702Z,7.57
2022-11-22T18:44:23.062Z,7.58
2022-11-22T18:46:49.406Z,7.50
2022-11-22T18:49:15.805Z,7.49
2022-11-22T18:51:42.210Z,7.47
2022-11-22T18:54:10.046Z,7.43
2022-11-22T18:56:39.776Z,7.34
2022-11-22T18:59:07.402Z,7.38
2022-11-22T19:01:37.250Z,7.42
2022-11-22T19:04:03.924Z,7.49
2022-11-22T19:06:30.800Z,7.43
2022-11-22T19:08:57.754Z,7.41
2022-11-22T19:11:24.282Z,7.38
2022-11-22T19:13:50.685Z,7.47
2022-11-22T19:16:21.983Z,7.59
2022-11-22T19:18:49.380Z,7.38
2022-11-22T19:21:18.190Z,7.40
2022-11-22T19:23:44.975Z,7.47
2022-11-22T19:26:14.210Z,7.51
2022-11-22T19:28:41.704Z,7.42
2022-11-22T19:31:13.391Z,7.41
2022-11-22T19:33:40.237Z,7.47
2022-11-22T19:36:11.301Z,7.39
2022-11-22T19:38:37.649Z,7.47
2022-11-22T19:41:15.181Z,7.49
2022-11-22T19:43:41.622Z,7.39
2022-11-22T19:46:07.998Z,7.26
2022-11-22T19:48:35.647Z,7.21
2022-11-22T19:51:08.711Z,7.33
2022-11-22T19:53:35.374Z,7.21
2022-11-22T19:56:06.826Z,7.36
2022-11-22T19:58:33.639Z,7.35
2022-11-22T20:01:07.707Z,7.35
2022-11-22T20:03:35.149Z,7.31
2022-11-22T20:06:02.768Z,7.39
2022-11-22T20:08:29.376Z,7.30
2022-11-22T20:11:03.017Z,7.32
2022-11-22T20:13:30.015Z,7.40
2022-11-22T20:15:57.378Z,7.35
2022-11-22T20:18:23.758Z,7.33
2022-11-22T20:20:50.130Z,7.32
2022-11-22T20:23:16.492Z,7.39
2022-11-22T20:25:42.851Z,7.29
2022-11-22T20:28:09.221Z,7.23
2022-11-22T20:30:35.618Z,7.35
2022-11-22T20:33:02.437Z,7.41
2022-11-22T20:35:28.822Z,7.28
2022-11-22T20:37:55.187Z,7.29
2022-11-22T20:40:21.559Z,7.24
2022-11-22T20:42:47.933Z,7.26
2022-11-22T20:45:14.323Z,7.28
2022-11-22T20:47:40.703Z,7.32
2022-11-22T20:50:07.724Z,7.37
2022-11-22T20:52:34.073Z,7.42
2022-11-22T20:55:05.008Z,7.49
2022-11-22T20:57:32.015Z,7.35
2022-11-22T20:59:58.410Z,7.36
2022-11-22T21:02:24.769Z,7.36
2022-11-22T21:04:51.110Z,7.44
2022-11-22T21:07:17.537Z,7.38
2022-11-22T21:09:43.920Z,7.44
2022-11-22T21:12:10.309Z,7.36
2022-11-22T21:14:36.760Z,7.40
2022-11-22T21:17:22.788Z,7.37
2022-11-22T21:19:49.468Z,7.43
2022-11-22T21:22:15.842Z,7.48
2022-11-22T21:24:42.805Z,7.51
2022-11-22T21:27:09.201Z,7.60
2022-11-22T21:29:35.698Z,7.53
2022-11-22T21:32:02.130Z,7.56
2022-11-22T21:34:28.735Z,7.69
2022-11-22T21:36:55.549Z,7.67
2022-11-22T21:39:22.199Z,7.68
2022-11-22T21:41:48.571Z,7.74
2022-11-22T21:44:14.932Z,7.67
2022-11-22T21:46:41.296Z,7.66
2022-11-22T21:49:07.721Z,7.71
2022-11-22T21:51:34.210Z,7.78
2022-11-22T21:54:01.656Z,7.81
2022-11-22T21:56:28.336Z,7.88
2022-11-22T21:58:54.717Z,7.93
2022-11-22T22:01:21.245Z,7.89
2022-11-22T22:03:47.715Z,7.96
2022-11-22T22:06:14.126Z,7.91
2022-11-22T22:08:40.839Z,8.02
2022-11-22T22:11:07.592Z,8.04
2022-11-22T22:13:33.950Z,8.02
2022-11-22T22:16:03.622Z,7.88
2022-11-22T22:18:31.426Z,7.94
2022-11-22T22:21:08.265Z,7.91
2022-11-22T22:23:36.016Z,7.93
2022-11-22T22:26:04.398Z,8.00
2022-11-22T22:28:32.286Z,8.04
2022-11-22T22:31:22.543Z,8.07
2022-11-22T22:33:52.522Z,8.04
2022-11-22T22:36:19.406Z,8.13
2022-11-22T22:38:45.770Z,8.07
2022-11-22T22:41:13.293Z,8.06
2022-11-22T22:43:44.963Z,8.08
2022-11-22T22:46:19.314Z,8.09
2022-11-22T22:48:46.478Z,8.08
2022-11-22T22:51:20.030Z,8.03
2022-11-22T22:53:46.621Z,8.12
2022-11-22T22:56:14.091Z,8.17
2022-11-22T22:58:40.755Z,8.24
2022-11-22T23:01:15.562Z,8.20
2022-11-22T23:03:41.920Z,8.08
2022-11-22T23:06:10.826Z,8.10
2022-11-22T23:08:38.446Z,8.17
2022-11-22T23:11:09.912Z,8.20
2022-11-22T23:13:37.725Z,8.14
2022-11-22T23:16:05.559Z,8.16
2022-11-22T23:18:34.808Z,8.19
2022-11-22T23:21:01.886Z,8.03
2022-11-22T23:23:29.090Z,7.99
2022-11-22T23:25:55.631Z,7.95
2022-11-22T23:28:22.350Z,7.97
2022-11-22T23:30:48.700Z,7.92
2022-11-22T23:33:15.183Z,7.97
2022-11-22T23:35:41.603Z,7.96
2022-11-22T23:38:08.012Z,7.92
2022-11-22T23:40:34.400Z,7.98
2022-11-22T23:43:00.795Z,7.95
2022-11-22T23:45:27.153Z,7.92
2022-11-22T23:47:53.741Z,7.89
2022-11-22T23:50:20.138Z,7.97
2022-11-22T23:52:46.541Z,7.91
2022-11-22T23:55:12.904Z,7.92
2022-11-22T23:57:39.359Z,8.03
